createdAt,value
2019-05-30T00:01:43.019Z,4.00
2019-05-30T00:04:10.933Z,4.00
2019-05-30T00:06:38.692Z,4.00
2019-05-30T00:09:08.001Z,3.90
2019-05-30T00:11:35.945Z,3.90
2019-05-30T00:14:04.962Z,3.90
2019-05-30T00:16:33.170Z,3.90
2019-05-30T00:19:01.051Z,3.90
2019-05-30T00:21:28.960Z,3.90
2019-05-30T00:23:57.845Z,3.90
2019-05-30T00:26:25.766Z,3.90
2019-05-30T00:28:53.705Z,3.90
2019-05-30T00:31:21.577Z,3.90
2019-05-30T00:33:49.430Z,3.80
2019-05-30T00:36:17.204Z,3.80
2019-05-30T00:38:45.009Z,3.70
2019-05-30T00:41:12.833Z,3.70
2019-05-30T00:43:40.716Z,3.60
2019-05-30T00:46:08.663Z,3.60
2019-05-30T00:48:36.610Z,3.60
2019-05-30T00:51:04.684Z,3.50
2019-05-30T00:53:32.680Z,3.50
2019-05-30T00:56:01.527Z,3.40
2019-05-30T00:58:29.946Z,3.40
2019-05-30T01:00:58.995Z,3.40
2019-05-30T01:03:27.107Z,3.40
2019-05-30T01:05:55.036Z,3.40
2019-05-30T01:08:22.900Z,3.40
2019-05-30T01:10:50.790Z,3.40
2019-05-30T01:13:18.648Z,3.40
2019-05-30T01:15:46.403Z,3.40
2019-05-30T01:18:14.259Z,3.40
2019-05-30T01:20:43.321Z,3.40
2019-05-30T01:23:11.175Z,3.40
2019-05-30T01:25:39.087Z,3.50
2019-05-30T01:28:07.875Z,3.50
2019-05-30T01:30:35.796Z,3.40
2019-05-30T01:33:03.887Z,3.30
2019-05-30T01:35:31.740Z,3.30
2019-05-30T01:37:59.721Z,3.20
2019-05-30T01:40:27.613Z,3.20
2019-05-30T01:42:55.484Z,3.20
2019-05-30T01:45:23.404Z,3.20
2019-05-30T01:47:51.306Z,3.10
2019-05-30T01:50:19.610Z,3.00
2019-05-30T01:52:47.523Z,3.00
2019-05-30T01:55:15.387Z,2.90
2019-05-30T01:57:43.284Z,2.90
2019-05-30T02:00:20.643Z,2.80
2019-05-30T02:02:44.322Z,2.80
2019-05-30T02:05:12.599Z,2.70
2019-05-30T02:07:40.500Z,2.70
2019-05-30T02:10:10.101Z,2.60
2019-05-30T02:12:38.214Z,2.60
2019-05-30T02:15:07.655Z,2.60
2019-05-30T02:17:35.668Z,2.70
2019-05-30T02:20:05.804Z,2.70
2019-05-30T02:22:33.832Z,2.70
2019-05-30T02:25:01.987Z,2.70
2019-05-30T02:27:29.943Z,2.70
2019-05-30T02:29:57.806Z,2.60
2019-05-30T02:32:25.699Z,2.60
2019-05-30T02:34:53.535Z,2.60
2019-05-30T02:37:21.432Z,2.50
2019-05-30T02:39:49.258Z,2.50
2019-05-30T02:42:17.128Z,2.50
2019-05-30T02:44:45.007Z,2.40
2019-05-30T02:47:12.883Z,2.40
2019-05-30T02:49:40.716Z,2.40
2019-05-30T02:52:08.626Z,2.30
2019-05-30T02:54:36.400Z,2.20
2019-05-30T02:57:05.528Z,2.20
2019-05-30T02:59:33.810Z,2.20
2019-05-30T03:02:05.283Z,2.20
2019-05-30T03:04:31.247Z,2.20
2019-05-30T03:06:59.170Z,2.20
2019-05-30T03:09:27.123Z,2.10
2019-05-30T03:11:55.028Z,2.10
2019-05-30T03:14:22.820Z,2.10
2019-05-30T03:16:50.625Z,2.20
2019-05-30T03:19:18.420Z,2.20
2019-05-30T03:21:46.299Z,2.10
2019-05-30T03:24:14.468Z,2.10
2019-05-30T03:26:42.522Z,2.10
2019-05-30T03:29:12.515Z,2.10
2019-05-30T03:31:40.471Z,2.20
2019-05-30T03:34:14.015Z,2.20
2019-05-30T03:36:37.818Z,2.30
2019-05-30T03:39:07.698Z,2.40
2019-05-30T03:41:36.363Z,2.40
2019-05-30T03:44:05.857Z,2.60
2019-05-30T03:46:35.595Z,2.70
2019-05-30T03:49:04.357Z,2.80
2019-05-30T03:51:34.049Z,2.90
2019-05-30T03:54:04.762Z,3.10
2019-05-30T03:56:43.564Z,3.20
2019-05-30T03:59:22.021Z,3.40
2019-05-30T04:02:03.528Z,3.50
2019-05-30T04:04:32.826Z,3.60
2019-05-30T04:07:06.684Z,3.80
2019-05-30T04:09:36.027Z,3.90
2019-05-30T04:12:07.573Z,4.00
2019-05-30T04:14:36.575Z,4.10
2019-05-30T04:17:04.441Z,4.20
2019-05-30T04:19:32.377Z,4.30
2019-05-30T04:22:00.204Z,4.40
2019-05-30T04:24:28.316Z,4.50
2019-05-30T04:26:56.368Z,4.60
2019-05-30T04:29:24.388Z,4.70
2019-05-30T04:31:52.434Z,4.80
2019-05-30T04:34:20.282Z,4.80
2019-05-30T04:36:52.997Z,4.90
2019-05-30T04:39:19.076Z,5.00
2019-05-30T04:41:47.044Z,5.10
2019-05-30T04:44:16.383Z,5.30
2019-05-30T04:46:44.204Z,5.40
2019-05-30T04:49:12.738Z,5.50
2019-05-30T04:51:41.660Z,5.70
2019-05-30T04:54:10.387Z,5.90
2019-05-30T04:56:38.878Z,6.10
2019-05-30T04:59:06.778Z,6.30
2019-05-30T05:01:34.529Z,6.50
2019-05-30T05:04:02.418Z,6.60
2019-05-30T05:06:30.313Z,6.80
2019-05-30T05:08:58.329Z,6.90
2019-05-30T05:11:26.273Z,7.00
2019-05-30T05:13:54.300Z,7.10
2019-05-30T05:16:33.884Z,7.20
2019-05-30T05:18:51.657Z,7.40
2019-05-30T05:21:19.549Z,7.60
2019-05-30T05:23:47.288Z,7.70
2019-05-30T05:26:17.410Z,7.90
2019-05-30T05:28:44.731Z,8.00
2019-05-30T05:31:12.501Z,8.20
2019-05-30T05:33:53.671Z,8.50
2019-05-30T05:36:09.880Z,8.60
2019-05-30T05:38:37.859Z,8.80
2019-05-30T05:41:05.835Z,8.90
2019-05-30T05:43:33.703Z,9.00
2019-05-30T05:46:01.622Z,9.10
2019-05-30T05:48:29.541Z,9.30
2019-05-30T05:50:57.484Z,9.50
2019-05-30T05:53:25.308Z,9.70
2019-05-30T05:55:53.266Z,9.90
2019-05-30T05:58:21.144Z,10.10
2019-05-30T06:00:49.065Z,10.40
2019-05-30T06:03:18.809Z,10.60
2019-05-30T06:05:52.877Z,10.70
2019-05-30T06:08:17.237Z,10.80
2019-05-30T06:10:46.537Z,11.00
2019-05-30T06:13:14.425Z,11.10
2019-05-30T06:15:42.346Z,11.20
2019-05-30T06:18:10.289Z,11.30
2019-05-30T06:20:38.309Z,11.40
2019-05-30T06:23:06.415Z,11.50
2019-05-30T06:25:34.294Z,11.70
2019-05-30T06:28:02.313Z,11.80
2019-05-30T06:30:30.326Z,12.00
2019-05-30T06:32:58.136Z,12.20
2019-05-30T06:35:27.464Z,12.40
2019-05-30T06:37:55.522Z,12.50
2019-05-30T06:40:25.526Z,12.70
2019-05-30T06:42:53.668Z,12.90
2019-05-30T06:45:24.064Z,13.00
2019-05-30T06:47:51.878Z,13.20
2019-05-30T06:50:20.631Z,13.40
2019-05-30T06:52:48.852Z,13.60
2019-05-30T06:55:16.820Z,13.80
2019-05-30T06:57:44.814Z,13.90
2019-05-30T07:00:13.229Z,14.00
2019-05-30T07:02:41.144Z,14.10
2019-05-30T07:05:09.771Z,14.20
2019-05-30T07:07:38.356Z,14.40
2019-05-30T07:10:06.683Z,14.50
2019-05-30T07:12:34.689Z,14.50
2019-05-30T07:15:02.658Z,14.50
2019-05-30T07:17:31.870Z,14.70
2019-05-30T07:19:59.761Z,14.80
2019-05-30T07:22:28.168Z,14.80
2019-05-30T07:24:56.071Z,14.90
2019-05-30T07:27:23.999Z,15.10
2019-05-30T07:29:51.890Z,15.20
2019-05-30T07:32:20.927Z,15.40
2019-05-30T07:34:48.902Z,15.60
2019-05-30T07:37:16.854Z,15.80
2019-05-30T07:39:44.718Z,16.00
2019-05-30T07:42:12.584Z,16.10
2019-05-30T07:44:40.553Z,16.20
2019-05-30T07:47:08.633Z,16.30
2019-05-30T07:49:36.597Z,16.30
2019-05-30T07:52:04.540Z,16.30
2019-05-30T07:54:33.032Z,16.20
2019-05-30T07:57:01.188Z,16.20
2019-05-30T07:59:30.300Z,16.10
2019-05-30T08:01:58.264Z,16.10
2019-05-30T08:04:27.373Z,16.20
2019-05-30T08:06:55.617Z,16.40
2019-05-30T08:09:24.611Z,16.60
2019-05-30T08:11:52.588Z,16.70
2019-05-30T08:14:20.443Z,16.90
2019-05-30T08:16:48.554Z,16.90
2019-05-30T08:19:16.431Z,17.00
2019-05-30T08:21:44.367Z,17.10
2019-05-30T08:24:12.333Z,17.20
2019-05-30T08:26:40.401Z,17.30
2019-05-30T08:29:08.468Z,17.30
2019-05-30T08:31:36.926Z,17.30
2019-05-30T08:34:05.233Z,17.20
2019-05-30T08:36:33.214Z,17.30
2019-05-30T08:39:01.172Z,17.40
2019-05-30T08:41:29.171Z,17.50
2019-05-30T08:43:57.047Z,17.50
2019-05-30T08:46:25.255Z,17.60
2019-05-30T08:48:54.222Z,17.70
2019-05-30T08:51:22.189Z,17.80
2019-05-30T08:53:50.262Z,17.80
2019-05-30T08:56:18.230Z,17.90
2019-05-30T08:58:46.105Z,17.90
2019-05-30T09:01:15.160Z,17.80
2019-05-30T09:03:44.154Z,17.80
2019-05-30T09:06:12.565Z,17.90
2019-05-30T09:08:40.699Z,18.10
2019-05-30T09:11:08.641Z,18.10
2019-05-30T09:13:37.721Z,18.20
2019-05-30T09:16:06.319Z,18.30
2019-05-30T09:18:34.285Z,18.40
2019-05-30T09:21:02.286Z,18.40
2019-05-30T09:23:30.283Z,18.50
2019-05-30T09:25:58.404Z,18.40
2019-05-30T09:28:26.384Z,18.50
2019-05-30T09:30:54.510Z,18.50
2019-05-30T09:33:22.501Z,18.60
2019-05-30T09:35:51.423Z,18.70
2019-05-30T09:38:19.495Z,18.90
2019-05-30T09:40:47.983Z,18.90
2019-05-30T09:43:16.216Z,19.00
2019-05-30T09:45:44.262Z,19.10
2019-05-30T09:48:12.365Z,19.20
2019-05-30T09:50:42.030Z,19.30
2019-05-30T09:53:10.418Z,19.30
2019-05-30T09:55:43.263Z,19.20
2019-05-30T09:58:14.642Z,19.20
2019-05-30T10:00:44.825Z,19.20
2019-05-30T10:03:13.607Z,19.20
2019-05-30T10:05:43.276Z,19.30
2019-05-30T10:08:13.410Z,19.40
2019-05-30T10:10:41.269Z,19.50
2019-05-30T10:13:09.082Z,19.50
2019-05-30T10:15:37.632Z,19.50
2019-05-30T10:18:05.683Z,19.60
2019-05-30T10:20:34.939Z,19.70
2019-05-30T10:23:03.800Z,19.70
2019-05-30T10:25:32.763Z,19.80
2019-05-30T10:28:00.761Z,20.10
2019-05-30T10:30:30.151Z,20.20
2019-05-30T10:32:58.207Z,20.30
2019-05-30T10:35:29.665Z,20.50
2019-05-30T10:37:56.952Z,20.70
2019-05-30T10:40:25.576Z,20.70
2019-05-30T10:42:54.999Z,20.50
2019-05-30T10:45:23.240Z,20.50
2019-05-30T10:47:51.437Z,20.80
2019-05-30T10:50:24.627Z,20.90
2019-05-30T10:52:53.631Z,20.90
2019-05-30T10:55:21.982Z,20.80
2019-05-30T10:57:50.094Z,20.80
2019-05-30T11:00:19.614Z,20.90
2019-05-30T11:02:49.215Z,21.10
2019-05-30T11:05:18.554Z,21.20
2019-05-30T11:08:01.974Z,21.30
2019-05-30T11:10:28.308Z,21.40
2019-05-30T11:13:05.158Z,21.50
2019-05-30T11:15:26.154Z,21.60
2019-05-30T11:17:54.831Z,21.70
2019-05-30T11:20:23.713Z,21.80
2019-05-30T11:22:53.055Z,21.90
2019-05-30T11:25:21.399Z,22.00
2019-05-30T11:27:50.651Z,22.20
2019-05-30T11:30:18.560Z,22.30
2019-05-30T11:32:46.456Z,22.50
2019-05-30T11:35:14.419Z,22.40
2019-05-30T11:37:42.599Z,22.30
2019-05-30T11:40:10.912Z,22.30
2019-05-30T11:42:39.284Z,22.40
2019-05-30T11:45:07.676Z,22.40
2019-05-30T11:47:35.550Z,22.50
2019-05-30T11:50:04.849Z,22.60
2019-05-30T11:52:33.640Z,22.60
2019-05-30T11:55:01.625Z,22.50
2019-05-30T11:57:30.026Z,22.60
2019-05-30T11:59:58.345Z,22.70
2019-05-30T12:02:26.519Z,22.70
2019-05-30T12:04:54.690Z,22.60
2019-05-30T12:07:35.883Z,22.70
2019-05-30T12:09:52.867Z,22.80
2019-05-30T12:12:21.075Z,22.90
2019-05-30T12:14:49.236Z,22.90
2019-05-30T12:17:17.556Z,22.90
2019-05-30T12:19:46.754Z,23.00
2019-05-30T12:22:14.836Z,23.10
2019-05-30T12:24:43.304Z,23.10
2019-05-30T12:27:12.293Z,23.10
2019-05-30T12:29:40.314Z,23.20
2019-05-30T12:32:08.226Z,23.30
2019-05-30T12:34:36.387Z,23.50
2019-05-30T12:37:04.592Z,23.30
2019-05-30T12:39:32.493Z,23.10
2019-05-30T12:42:01.508Z,23.20
2019-05-30T12:44:29.477Z,23.30
2019-05-30T12:46:59.203Z,23.30
2019-05-30T12:49:27.167Z,23.20
2019-05-30T12:51:56.209Z,23.30
2019-05-30T12:54:25.948Z,23.30
2019-05-30T12:56:55.048Z,23.40
2019-05-30T12:59:23.068Z,23.40
2019-05-30T13:01:51.984Z,23.40
2019-05-30T13:04:20.201Z,23.30
2019-05-30T13:06:48.118Z,23.30
2019-05-30T13:09:16.666Z,23.40
2019-05-30T13:11:44.635Z,23.50
2019-05-30T13:14:12.783Z,23.60
2019-05-30T13:16:40.588Z,23.60
2019-05-30T13:19:08.880Z,23.60
2019-05-30T13:21:40.266Z,23.60
2019-05-30T13:24:08.384Z,23.70
2019-05-30T13:26:37.088Z,23.80
2019-05-30T13:29:06.367Z,23.80
2019-05-30T13:31:35.910Z,23.90
2019-05-30T13:34:04.925Z,23.80
2019-05-30T13:36:33.098Z,24.00
2019-05-30T13:39:01.232Z,24.10
2019-05-30T13:41:30.066Z,24.10
2019-05-30T13:43:57.983Z,24.10
2019-05-30T13:46:25.957Z,24.10
2019-05-30T13:48:54.595Z,23.90
2019-05-30T13:51:22.903Z,23.80
2019-05-30T13:53:51.035Z,23.70
2019-05-30T13:56:19.099Z,23.60
2019-05-30T13:58:46.943Z,23.80
2019-05-30T14:01:15.202Z,24.00
2019-05-30T14:03:43.701Z,24.20
2019-05-30T14:06:12.676Z,24.30
2019-05-30T14:08:42.023Z,24.40
2019-05-30T14:11:10.816Z,24.40
2019-05-30T14:13:41.316Z,24.20
2019-05-30T14:16:11.077Z,23.90
2019-05-30T14:18:39.220Z,23.80
2019-05-30T14:21:07.556Z,23.70
2019-05-30T14:23:36.235Z,23.80
2019-05-30T14:26:05.206Z,24.10
2019-05-30T14:28:33.505Z,24.40
2019-05-30T14:31:03.584Z,24.60
2019-05-30T14:33:32.108Z,24.70
2019-05-30T14:36:04.009Z,24.80
2019-05-30T14:38:34.093Z,25.10
2019-05-30T14:41:02.940Z,25.30
2019-05-30T14:43:31.330Z,25.20
2019-05-30T14:45:59.644Z,24.90
2019-05-30T14:48:27.764Z,24.70
2019-05-30T14:50:56.076Z,24.50
2019-05-30T14:53:25.494Z,24.40
2019-05-30T14:55:53.616Z,24.50
2019-05-30T14:58:21.636Z,24.50
2019-05-30T15:00:49.613Z,24.40
2019-05-30T15:03:19.501Z,24.30
2019-05-30T15:05:48.613Z,24.10
2019-05-30T15:08:16.871Z,23.90
2019-05-30T15:10:44.998Z,23.90
2019-05-30T15:13:13.797Z,23.90
2019-05-30T15:15:42.892Z,23.80
2019-05-30T15:18:11.448Z,23.80
2019-05-30T15:20:39.435Z,23.80
2019-05-30T15:23:07.590Z,23.70
2019-05-30T15:25:36.959Z,23.70
2019-05-30T15:28:05.960Z,23.70
2019-05-30T15:30:34.035Z,23.60
2019-05-30T15:33:01.982Z,23.40
2019-05-30T15:35:29.975Z,23.30
2019-05-30T15:37:57.956Z,23.30
2019-05-30T15:40:26.144Z,23.30
2019-05-30T15:42:54.010Z,23.30
2019-05-30T15:45:22.911Z,23.20
2019-05-30T15:47:50.937Z,23.10
2019-05-30T15:50:18.962Z,22.90
2019-05-30T15:52:46.895Z,22.50
2019-05-30T15:55:15.342Z,22.40
2019-05-30T15:57:43.434Z,22.10
2019-05-30T16:00:12.389Z,21.90
2019-05-30T16:02:42.045Z,21.60
2019-05-30T16:05:12.491Z,21.40
2019-05-30T16:07:41.666Z,21.10
2019-05-30T16:10:10.847Z,20.90
2019-05-30T16:12:39.098Z,20.60
2019-05-30T16:15:07.483Z,20.50
2019-05-30T16:17:35.503Z,20.30
2019-05-30T16:20:05.066Z,20.20
2019-05-30T16:22:32.955Z,20.00
2019-05-30T16:25:00.912Z,19.90
2019-05-30T16:27:31.115Z,19.80
2019-05-30T16:30:00.717Z,19.70
2019-05-30T16:32:29.841Z,19.70
2019-05-30T16:34:57.938Z,19.60
2019-05-30T16:37:26.795Z,19.60
2019-05-30T16:40:05.132Z,19.50
2019-05-30T16:42:26.529Z,19.50
2019-05-30T16:44:54.910Z,19.50
2019-05-30T16:47:23.954Z,19.40
2019-05-30T16:49:52.270Z,19.40
2019-05-30T16:52:21.026Z,19.30
2019-05-30T16:54:49.226Z,19.30
2019-05-30T16:57:18.600Z,19.20
2019-05-30T16:59:47.255Z,19.10
2019-05-30T17:02:16.881Z,19.00
2019-05-30T17:04:45.315Z,18.90
2019-05-30T17:07:15.497Z,18.80
2019-05-30T17:09:43.461Z,18.70
2019-05-30T17:12:11.472Z,18.60
2019-05-30T17:14:39.537Z,18.50
2019-05-30T17:17:07.665Z,18.40
2019-05-30T17:19:39.037Z,18.20
2019-05-30T17:22:05.418Z,18.10
2019-05-30T17:24:33.606Z,18.00
2019-05-30T17:27:02.748Z,17.90
2019-05-30T17:29:30.822Z,17.80
2019-05-30T17:31:58.918Z,17.80
2019-05-30T17:34:28.101Z,17.80
2019-05-30T17:36:56.199Z,17.80
2019-05-30T17:39:24.584Z,17.70
2019-05-30T17:41:52.665Z,17.70
2019-05-30T17:44:21.074Z,17.60
2019-05-30T17:46:49.093Z,17.60
2019-05-30T17:49:17.014Z,17.50
2019-05-30T17:51:45.053Z,17.40
2019-05-30T17:54:13.019Z,17.40
2019-05-30T17:56:42.222Z,17.30
2019-05-30T17:59:10.244Z,17.30
2019-05-30T18:01:40.347Z,17.20
2019-05-30T18:04:08.303Z,17.10
2019-05-30T18:06:36.259Z,17.00
2019-05-30T18:09:05.526Z,16.90
2019-05-30T18:11:33.523Z,16.80
2019-05-30T18:14:01.550Z,16.70
2019-05-30T18:16:29.523Z,16.60
2019-05-30T18:18:57.451Z,16.50
2019-05-30T18:21:25.450Z,16.40
2019-05-30T18:23:53.176Z,16.20
2019-05-30T18:26:21.505Z,16.00
2019-05-30T18:28:49.407Z,15.80
2019-05-30T18:31:17.254Z,15.70
2019-05-30T18:33:45.116Z,15.60
2019-05-30T18:36:13.131Z,15.40
2019-05-30T18:38:41.152Z,15.40
2019-05-30T18:41:11.780Z,15.20
2019-05-30T18:43:38.629Z,15.20
2019-05-30T18:46:06.855Z,15.20
2019-05-30T18:48:35.403Z,15.10
2019-05-30T18:51:03.381Z,15.10
2019-05-30T18:53:32.454Z,15.00
2019-05-30T18:56:00.529Z,15.00
2019-05-30T18:58:28.927Z,14.90
2019-05-30T19:00:57.101Z,14.90
2019-05-30T19:03:24.919Z,14.90
2019-05-30T19:05:54.248Z,14.80
2019-05-30T19:08:22.740Z,14.70
2019-05-30T19:10:50.782Z,14.80
2019-05-30T19:13:19.156Z,14.70
2019-05-30T19:15:47.249Z,14.60
2019-05-30T19:18:15.234Z,14.60
2019-05-30T19:20:43.216Z,14.60
2019-05-30T19:23:12.700Z,14.60
2019-05-30T19:25:40.749Z,14.50
2019-05-30T19:28:08.845Z,14.50
2019-05-30T19:30:40.968Z,14.50
2019-05-30T19:33:08.059Z,14.40
2019-05-30T19:35:37.539Z,14.30
2019-05-30T19:38:05.555Z,14.30
2019-05-30T19:40:33.688Z,14.20
2019-05-30T19:43:01.718Z,14.10
2019-05-30T19:45:29.993Z,14.10
2019-05-30T19:47:58.103Z,14.10
2019-05-30T19:50:26.802Z,14.00
2019-05-30T19:52:54.720Z,14.00
2019-05-30T19:55:22.721Z,14.00
2019-05-30T19:57:50.835Z,14.00
2019-05-30T20:00:19.043Z,14.00
2019-05-30T20:02:47.030Z,14.10
2019-05-30T20:05:14.971Z,14.10
2019-05-30T20:07:43.130Z,14.10
2019-05-30T20:10:11.251Z,14.20
2019-05-30T20:12:40.991Z,14.10
2019-05-30T20:15:09.555Z,14.10
2019-05-30T20:17:37.641Z,14.10
2019-05-30T20:20:09.156Z,14.20
2019-05-30T20:22:38.235Z,14.20
2019-05-30T20:25:07.347Z,14.20
2019-05-30T20:27:36.460Z,14.20
2019-05-30T20:30:08.122Z,14.20
2019-05-30T20:32:36.487Z,14.20
2019-05-30T20:35:06.693Z,14.10
2019-05-30T20:37:34.719Z,14.10
2019-05-30T20:40:02.608Z,14.10
2019-05-30T20:42:30.648Z,14.10
2019-05-30T20:44:58.518Z,14.10
2019-05-30T20:47:26.628Z,14.10
2019-05-30T20:49:54.528Z,14.20
2019-05-30T20:52:22.445Z,14.20
2019-05-30T20:54:50.444Z,14.20
2019-05-30T20:57:18.427Z,14.20
2019-05-30T20:59:47.128Z,14.20
2019-05-30T21:02:15.265Z,14.20
2019-05-30T21:04:43.177Z,14.20
2019-05-30T21:07:11.420Z,14.30
2019-05-30T21:09:40.017Z,14.30
2019-05-30T21:12:07.928Z,14.20
2019-05-30T21:14:37.244Z,14.30
2019-05-30T21:17:05.358Z,14.30
2019-05-30T21:19:33.244Z,14.30
2019-05-30T21:22:01.242Z,14.20
2019-05-30T21:24:29.385Z,14.20
2019-05-30T21:26:57.343Z,14.20
2019-05-30T21:29:25.498Z,14.20
2019-05-30T21:31:53.483Z,14.20
2019-05-30T21:34:21.706Z,14.20
2019-05-30T21:36:49.793Z,14.20
2019-05-30T21:39:17.694Z,14.20
2019-05-30T21:41:46.378Z,14.20
2019-05-30T21:44:14.383Z,14.10
2019-05-30T21:46:42.537Z,14.10
2019-05-30T21:49:10.609Z,14.10
2019-05-30T21:51:39.185Z,14.10
2019-05-30T21:54:07.234Z,14.00
2019-05-30T21:56:35.141Z,14.00
2019-05-30T21:59:04.200Z,14.00
2019-05-30T22:01:33.040Z,13.90
2019-05-30T22:04:01.000Z,13.90
2019-05-30T22:06:28.876Z,13.90
2019-05-30T22:08:56.885Z,13.90
2019-05-30T22:11:24.800Z,13.90
2019-05-30T22:13:53.957Z,13.80
2019-05-30T22:16:21.976Z,13.80
2019-05-30T22:18:50.197Z,13.80
2019-05-30T22:21:17.999Z,13.70
2019-05-30T22:23:48.115Z,13.70
2019-05-30T22:26:15.987Z,13.70
2019-05-30T22:28:44.372Z,13.70
2019-05-30T22:31:12.383Z,13.70
2019-05-30T22:33:40.229Z,13.70
2019-05-30T22:36:08.177Z,13.70
2019-05-30T22:38:36.142Z,13.70
2019-05-30T22:41:04.164Z,13.70
2019-05-30T22:43:32.037Z,13.70
2019-05-30T22:46:00.498Z,13.70
2019-05-30T22:48:28.505Z,13.70
2019-05-30T22:50:57.060Z,13.70
2019-05-30T22:53:25.108Z,13.70
2019-05-30T22:55:53.640Z,13.70
2019-05-30T22:58:21.601Z,13.70
2019-05-30T23:00:49.948Z,13.60
2019-05-30T23:03:18.033Z,13.60
2019-05-30T23:05:47.198Z,13.60
2019-05-30T23:08:15.348Z,13.60
2019-05-30T23:10:43.219Z,13.50
2019-05-30T23:13:12.391Z,13.50
2019-05-30T23:15:40.288Z,13.50
2019-05-30T23:18:08.222Z,13.50
2019-05-30T23:20:36.211Z,13.40
2019-05-30T23:23:04.655Z,13.40
2019-05-30T23:25:32.640Z,13.40
2019-05-30T23:28:00.664Z,13.40
2019-05-30T23:30:28.543Z,13.40
2019-05-30T23:32:56.386Z,13.40
2019-05-30T23:35:24.373Z,13.40
2019-05-30T23:37:53.048Z,13.40
2019-05-30T23:40:21.167Z,13.40
2019-05-30T23:42:49.150Z,13.40
2019-05-30T23:45:17.143Z,13.40
2019-05-30T23:47:45.022Z,13.50
2019-05-30T23:50:13.593Z,13.40
2019-05-30T23:52:41.481Z,13.50
2019-05-30T23:55:09.557Z,13.50
2019-05-30T23:57:37.430Z,13.50
